createdAt,value
2023-03-03T06:25:24.587Z,1023.99
2023-03-03T06:26:24.580Z,1024.01
2023-03-03T06:27:24.545Z,1023.97
2023-03-03T06:28:24.527Z,1024.01
2023-03-03T06:29:24.539Z,1023.98
2023-03-03T06:30:24.495Z,1023.97
2023-03-03T06:31:24.588Z,1023.98
2023-03-03T06:32:24.592Z,1024.02
2023-03-03T06:33:24.451Z,1024.00
2023-03-03T06:34:24.517Z,1023.97
2023-03-03T06:35:24.536Z,1023.99
2023-03-03T06:36:24.511Z,1023.97
2023-03-03T06:37:24.420Z,1023.99
2023-03-03T06:38:24.397Z,1024.01
2023-03-03T06:39:24.398Z,1023.98
2023-03-03T06:40:24.399Z,1023.99
2023-03-03T06:41:24.360Z,1024.01
2023-03-03T06:42:24.341Z,1024.01
2023-03-03T06:43:24.362Z,1024.04
2023-03-03T06:44:24.293Z,1024.04
2023-03-03T06:45:24.364Z,1024.02
2023-03-03T06:46:24.282Z,1024.03
2023-03-03T06:47:24.283Z,1024.03
2023-03-03T06:48:24.297Z,1024.06
2023-03-03T06:49:24.243Z,1024.15
2023-03-03T06:50:24.219Z,1024.09
2023-03-03T06:51:24.304Z,1024.15
2023-03-03T06:52:24.240Z,1024.18
2023-03-03T06:53:24.213Z,1024.17
2023-03-03T06:54:26.542Z,1024.17
2023-03-03T06:55:24.179Z,1024.19
2023-03-03T06:56:24.160Z,1024.20
2023-03-03T06:57:24.144Z,1024.20
2023-03-03T06:58:24.179Z,1024.26
2023-03-03T06:59:24.129Z,1024.22
2023-03-03T07:00:24.104Z,1024.19
2023-03-03T07:01:24.214Z,1024.25
2023-03-03T07:02:24.093Z,1024.19
2023-03-03T07:03:24.088Z,1024.24
2023-03-03T07:04:24.053Z,1024.24
2023-03-03T07:05:24.051Z,1024.25
2023-03-03T07:06:24.033Z,1024.28
2023-03-03T07:07:24.035Z,1024.32
2023-03-03T07:08:24.120Z,1024.26
2023-03-03T07:09:31.560Z,1024.23
2023-03-03T07:10:24.009Z,1024.29
2023-03-03T07:11:23.957Z,1024.24
2023-03-03T07:12:23.976Z,1024.24
2023-03-03T07:13:23.934Z,1024.22
2023-03-03T07:14:23.923Z,1024.24
2023-03-03T07:15:23.899Z,1024.26
2023-03-03T07:16:23.962Z,1024.22
2023-03-03T07:17:23.877Z,1024.21
2023-03-03T07:18:23.889Z,1024.27
2023-03-03T07:19:23.899Z,1024.22
2023-03-03T07:20:23.923Z,1024.22
2023-03-03T07:21:23.839Z,1024.21
2023-03-03T07:22:23.828Z,1024.22
2023-03-03T07:23:23.852Z,1024.22
2023-03-03T07:24:23.893Z,1024.28
2023-03-03T07:25:23.821Z,1024.32
2023-03-03T07:26:23.766Z,1024.32
2023-03-03T07:27:23.741Z,1024.33
2023-03-03T07:28:23.747Z,1024.37
2023-03-03T07:29:23.785Z,1024.41
2023-03-03T07:30:23.724Z,1024.37
2023-03-03T07:31:23.700Z,1024.37
2023-03-03T07:32:23.760Z,1024.37
2023-03-03T07:33:23.700Z,1024.40
2023-03-03T07:34:23.692Z,1024.43
2023-03-03T07:35:23.653Z,1024.42
2023-03-03T07:36:23.641Z,1024.45
2023-03-03T07:37:23.642Z,1024.41
2023-03-03T07:38:23.618Z,1024.43
2023-03-03T07:39:23.610Z,1024.41
2023-03-03T07:40:23.587Z,1024.43
2023-03-03T07:41:23.615Z,1024.46
2023-03-03T07:42:23.574Z,1024.49
2023-03-03T07:43:23.554Z,1024.47
2023-03-03T07:44:23.574Z,1024.47
2023-03-03T07:45:23.551Z,1024.46
2023-03-03T07:46:23.563Z,1024.51
2023-03-03T07:47:23.507Z,1024.52
2023-03-03T07:48:23.461Z,1024.52
2023-03-03T07:49:23.483Z,1024.55
2023-03-03T07:50:23.454Z,1024.54
2023-03-03T07:51:23.426Z,1024.57
2023-03-03T07:52:23.474Z,1024.56
2023-03-03T07:53:23.433Z,1024.57
2023-03-03T07:54:23.462Z,1024.62
2023-03-03T07:55:23.422Z,1024.63
2023-03-03T07:56:23.370Z,1024.69
2023-03-03T07:57:23.366Z,1024.71
2023-03-03T07:58:23.364Z,1024.64
2023-03-03T07:59:23.327Z,1024.68
2023-03-03T08:00:23.320Z,1024.62
2023-03-03T08:01:23.326Z,1024.68
2023-03-03T08:02:23.349Z,1024.69
2023-03-03T08:03:23.308Z,1024.73
2023-03-03T08:04:23.397Z,1024.70
2023-03-03T08:05:23.417Z,1024.72
2023-03-03T08:06:23.268Z,1024.72
2023-03-03T08:07:23.216Z,1024.77
2023-03-03T08:08:23.240Z,1024.79
2023-03-03T08:09:23.201Z,1024.76
2023-03-03T08:10:23.318Z,1024.74
2023-03-03T08:11:23.174Z,1024.75
2023-03-03T08:12:23.187Z,1024.76
2023-03-03T08:13:23.156Z,1024.75
2023-03-03T08:14:23.162Z,1024.76
2023-03-03T08:15:23.137Z,1024.81
2023-03-03T08:16:23.167Z,1024.82
2023-03-03T08:17:23.078Z,1024.82
2023-03-03T08:18:23.058Z,1024.81
2023-03-03T08:19:23.087Z,1024.84
2023-03-03T08:20:23.076Z,1024.81
2023-03-03T08:21:23.058Z,1024.83
2023-03-03T08:22:23.026Z,1024.82
2023-03-03T08:23:23.060Z,1024.84
2023-03-03T08:24:23.045Z,1024.86
2023-03-03T08:25:22.975Z,1024.87
2023-03-03T08:26:22.977Z,1024.91
2023-03-03T08:27:23.006Z,1024.87
2023-03-03T08:28:22.963Z,1024.88
2023-03-03T08:29:22.937Z,1024.87
2023-03-03T08:30:22.955Z,1024.85
2023-03-03T08:31:39.636Z,1024.86
2023-03-03T08:32:23.959Z,1024.94
2023-03-03T08:33:22.912Z,1024.96
2023-03-03T08:34:22.892Z,1024.94
2023-03-03T08:35:22.915Z,1024.92
2023-03-03T08:36:22.856Z,1025.00
2023-03-03T08:37:22.830Z,1024.98
2023-03-03T08:38:22.801Z,1024.98
2023-03-03T08:39:22.776Z,1025.00
2023-03-03T08:40:22.795Z,1024.96
2023-03-03T08:41:22.771Z,1024.95
2023-03-03T08:42:22.761Z,1024.99
2023-03-03T08:43:22.715Z,1024.99
2023-03-03T08:44:22.720Z,1024.98
2023-03-03T08:45:22.740Z,1024.97
2023-03-03T08:46:22.723Z,1024.97
2023-03-03T08:47:22.709Z,1024.96
2023-03-03T08:48:22.662Z,1024.96
2023-03-03T08:49:31.844Z,1025.03
2023-03-03T08:50:31.234Z,1025.01
2023-03-03T08:51:22.624Z,1025.00
2023-03-03T08:52:22.605Z,1025.06
2023-03-03T08:53:22.619Z,1025.06
2023-03-03T08:54:22.647Z,1025.01
2023-03-03T08:55:22.566Z,1025.05
2023-03-03T08:56:22.559Z,1025.04
2023-03-03T08:57:22.540Z,1025.10
2023-03-03T08:58:33.441Z,1025.09
2023-03-03T08:59:23.526Z,1025.08
2023-03-03T09:00:22.496Z,1025.05
2023-03-03T09:01:22.579Z,1025.12
2023-03-03T09:02:22.492Z,1025.04
2023-03-03T09:03:22.517Z,1025.08
2023-03-03T09:04:22.531Z,1025.14
2023-03-03T09:05:22.441Z,1025.13
2023-03-03T09:06:22.440Z,1025.13
2023-03-03T09:07:22.410Z,1025.15
2023-03-03T09:08:22.415Z,1025.16
2023-03-03T09:09:22.383Z,1025.17
2023-03-03T09:10:22.358Z,1025.21
2023-03-03T09:11:22.371Z,1025.22
2023-03-03T09:12:22.346Z,1025.22
2023-03-03T09:13:22.328Z,1025.19
2023-03-03T09:14:22.323Z,1025.21
2023-03-03T09:15:22.295Z,1025.20
2023-03-03T09:16:22.437Z,1025.21
2023-03-03T09:17:22.297Z,1025.24
2023-03-03T09:18:22.259Z,1025.23
2023-03-03T09:19:22.330Z,1025.23
2023-03-03T09:20:22.232Z,1025.26
2023-03-03T09:21:22.225Z,1025.24
2023-03-03T09:22:22.198Z,1025.30
2023-03-03T09:23:22.214Z,1025.27
2023-03-03T09:24:22.179Z,1025.31
2023-03-03T09:25:22.184Z,1025.34
2023-03-03T09:26:22.182Z,1025.34
2023-03-03T09:27:22.149Z,1025.35
2023-03-03T09:28:22.119Z,1025.34
2023-03-03T09:29:22.275Z,1025.32
2023-03-03T09:30:22.105Z,1025.33
2023-03-03T09:31:22.136Z,1025.30
2023-03-03T09:32:22.152Z,1025.27
2023-03-03T09:33:22.080Z,1025.29
2023-03-03T09:34:22.073Z,1025.25
2023-03-03T09:35:22.067Z,1025.31
2023-03-03T09:36:22.017Z,1025.28
2023-03-03T09:37:22.030Z,1025.31
2023-03-03T09:38:22.029Z,1025.31
2023-03-03T09:39:21.996Z,1025.33
2023-03-03T09:40:21.967Z,1025.34
2023-03-03T09:41:21.948Z,1025.33
2023-03-03T09:42:21.937Z,1025.35
2023-03-03T09:43:21.954Z,1025.33
2023-03-03T09:44:21.918Z,1025.33
2023-03-03T09:45:21.905Z,1025.34
2023-03-03T09:46:21.942Z,1025.33
2023-03-03T09:47:22.248Z,1025.37
2023-03-03T09:48:21.889Z,1025.43
2023-03-03T09:49:21.840Z,1025.41
2023-03-03T09:50:21.869Z,1025.42
2023-03-03T09:51:21.827Z,1025.45
2023-03-03T09:52:21.806Z,1025.46
2023-03-03T09:53:21.790Z,1025.45
2023-03-03T09:54:21.781Z,1025.43
2023-03-03T09:55:23.273Z,1025.43
2023-03-03T09:56:21.757Z,1025.42
2023-03-03T09:57:21.740Z,1025.42
2023-03-03T09:58:21.742Z,1025.45
2023-03-03T09:59:21.745Z,1025.47
2023-03-03T10:00:21.716Z,1025.46
2023-03-03T10:01:21.688Z,1025.48
2023-03-03T10:02:21.732Z,1025.46
2023-03-03T10:03:21.741Z,1025.46
2023-03-03T10:04:21.758Z,1025.44
2023-03-03T10:05:21.657Z,1025.46
2023-03-03T10:06:21.660Z,1025.46
2023-03-03T10:07:21.613Z,1025.46
2023-03-03T10:08:21.626Z,1025.50
2023-03-03T10:09:21.562Z,1025.43
2023-03-03T10:10:21.636Z,1025.48
2023-03-03T10:11:21.578Z,1025.45
2023-03-03T10:12:21.548Z,1025.45
2023-03-03T10:13:21.518Z,1025.46
2023-03-03T10:14:21.533Z,1025.49
2023-03-03T10:15:21.543Z,1025.52
2023-03-03T10:16:21.625Z,1025.51
2023-03-03T10:17:21.468Z,1025.51
2023-03-03T10:18:21.456Z,1025.53
2023-03-03T10:19:21.442Z,1025.53
2023-03-03T10:20:21.440Z,1025.53
2023-03-03T10:21:21.441Z,1025.48
2023-03-03T10:22:21.401Z,1025.50
2023-03-03T10:23:21.387Z,1025.53
2023-03-03T10:24:21.423Z,1025.54
2023-03-03T10:25:21.389Z,1025.54
2023-03-03T10:26:25.069Z,1025.55
2023-03-03T10:27:22.380Z,1025.53
2023-03-03T10:28:21.324Z,1025.57
2023-03-03T10:29:22.482Z,1025.60
2023-03-03T10:30:37.029Z,1025.55
2023-03-03T10:31:28.251Z,1025.57
2023-03-03T10:32:22.412Z,1025.57
2023-03-03T10:33:22.219Z,1025.57
2023-03-03T10:34:21.287Z,1025.62
2023-03-03T10:35:21.247Z,1025.60
2023-03-03T10:36:21.260Z,1025.64
2023-03-03T10:37:21.205Z,1025.63
2023-03-03T10:38:21.247Z,1025.63
2023-03-03T10:39:21.206Z,1025.61
2023-03-03T10:40:21.181Z,1025.62
2023-03-03T10:41:23.853Z,1025.66
2023-03-03T10:42:21.234Z,1025.65
2023-03-03T10:43:31.096Z,1025.64
2023-03-03T10:44:22.384Z,1025.61
2023-03-03T10:45:21.137Z,1025.66
2023-03-03T10:46:21.198Z,1025.66
2023-03-03T10:47:23.208Z,1025.67
2023-03-03T10:48:21.150Z,1025.66
2023-03-03T10:49:21.781Z,1025.62
2023-03-03T10:50:21.091Z,1025.64
2023-03-03T10:51:21.093Z,1025.63
2023-03-03T10:52:21.034Z,1025.67
2023-03-03T10:53:21.259Z,1025.62
2023-03-03T10:54:21.053Z,1025.63
2023-03-03T10:55:21.008Z,1025.62
2023-03-03T10:56:20.970Z,1025.69
2023-03-03T10:57:20.962Z,1025.63
2023-03-03T10:58:21.002Z,1025.65
2023-03-03T10:59:20.972Z,1025.66
2023-03-03T11:00:21.080Z,1025.65
2023-03-03T11:01:23.705Z,1025.68
2023-03-03T11:02:20.897Z,1025.65
2023-03-03T11:03:20.884Z,1025.66
2023-03-03T11:04:20.893Z,1025.66
2023-03-03T11:05:21.889Z,1025.64
2023-03-03T11:06:20.882Z,1025.66
2023-03-03T11:07:20.875Z,1025.67
2023-03-03T11:08:20.861Z,1025.67
2023-03-03T11:09:20.797Z,1025.61
2023-03-03T11:10:20.827Z,1025.61
2023-03-03T11:11:20.918Z,1025.58
2023-03-03T11:12:22.545Z,1025.62
2023-03-03T11:13:20.837Z,1025.60
2023-03-03T11:14:20.838Z,1025.58
2023-03-03T11:15:20.736Z,1025.61
2023-03-03T11:16:20.771Z,1025.54
2023-03-03T11:17:20.747Z,1025.62
2023-03-03T11:18:23.819Z,1025.58
2023-03-03T11:19:20.671Z,1025.55
2023-03-03T11:20:20.663Z,1025.59
2023-03-03T11:21:20.698Z,1025.55
2023-03-03T11:22:20.661Z,1025.54
2023-03-03T11:23:20.636Z,1025.54
2023-03-03T11:24:20.595Z,1025.55
2023-03-03T11:25:20.639Z,1025.59
2023-03-03T11:26:20.556Z,1025.56
2023-03-03T11:27:20.610Z,1025.57
2023-03-03T11:28:20.543Z,1025.55
2023-03-03T11:30:31.876Z,1025.55
2023-03-03T11:31:32.162Z,1025.49
2023-03-03T11:32:32.579Z,1025.49
2023-03-03T11:33:31.813Z,1025.44
2023-03-03T11:34:31.825Z,1025.41
2023-03-03T11:35:31.836Z,1025.39
2023-03-03T11:36:33.917Z,1025.42
2023-03-03T11:37:31.761Z,1025.49
2023-03-03T11:38:31.777Z,1025.42
2023-03-03T11:39:31.730Z,1025.38
2023-03-03T11:40:31.723Z,1025.39
2023-03-03T11:41:31.734Z,1025.36
2023-03-03T11:42:31.695Z,1025.36
2023-03-03T11:43:36.954Z,1025.33
2023-03-03T11:44:32.654Z,1025.34
2023-03-03T11:45:31.658Z,1025.37
2023-03-03T11:46:31.702Z,1025.35
2023-03-03T11:47:32.167Z,1025.31
2023-03-03T11:48:31.620Z,1025.28
2023-03-03T11:49:31.597Z,1025.29
2023-03-03T11:50:31.596Z,1025.26
2023-03-03T11:51:31.593Z,1025.29
2023-03-03T11:52:31.599Z,1025.25
2023-03-03T11:53:31.547Z,1025.20
2023-03-03T11:54:31.588Z,1025.24
2023-03-03T11:55:31.539Z,1025.25
2023-03-03T11:56:31.525Z,1025.24
2023-03-03T11:57:31.499Z,1025.22
2023-03-03T11:58:31.485Z,1025.23
2023-03-03T11:59:31.455Z,1025.21
2023-03-03T12:00:31.490Z,1025.28
2023-03-03T12:01:31.472Z,1025.22
2023-03-03T12:02:31.462Z,1025.22
2023-03-03T12:03:31.439Z,1025.20
2023-03-03T12:04:31.408Z,1025.22
2023-03-03T12:05:38.984Z,1025.17
2023-03-03T12:06:31.403Z,1025.22
2023-03-03T12:07:31.362Z,1025.25
2023-03-03T12:08:31.356Z,1025.21
2023-03-03T12:09:31.349Z,1025.20
2023-03-03T12:10:31.350Z,1025.17
2023-03-03T12:11:31.305Z,1025.15
2023-03-03T12:12:31.300Z,1025.17
2023-03-03T12:13:31.308Z,1025.15
2023-03-03T12:14:31.305Z,1025.14
2023-03-03T12:15:31.261Z,1025.13
2023-03-03T12:16:31.256Z,1025.15
2023-03-03T12:17:31.245Z,1025.16
2023-03-03T12:18:31.254Z,1025.13
2023-03-03T12:19:31.240Z,1025.13
2023-03-03T12:20:31.227Z,1025.17
2023-03-03T12:21:31.283Z,1025.13
2023-03-03T12:22:31.204Z,1025.12
2023-03-03T12:23:31.195Z,1025.12
2023-03-03T12:24:31.216Z,1025.15
2023-03-03T12:25:31.169Z,1025.11
2023-03-03T12:26:31.178Z,1025.09
2023-03-03T12:27:31.150Z,1025.09
2023-03-03T12:28:31.131Z,1025.09
2023-03-03T12:29:31.122Z,1025.07
2023-03-03T12:30:31.110Z,1025.05
2023-03-03T12:31:31.156Z,1025.01
2023-03-03T12:32:31.112Z,1025.05
2023-03-03T12:33:31.051Z,1025.01
2023-03-03T12:34:31.059Z,1025.03
2023-03-03T12:35:31.107Z,1025.05
2023-03-03T12:36:31.053Z,1025.01
2023-03-03T12:37:31.025Z,1025.01
2023-03-03T12:38:31.014Z,1025.02
2023-03-03T12:39:35.037Z,1024.99
2023-03-03T12:40:30.968Z,1024.93
2023-03-03T12:41:30.970Z,1025.01
2023-03-03T12:42:30.966Z,1024.94
2023-03-03T12:43:30.938Z,1024.97
2023-03-03T12:44:30.925Z,1024.95
2023-03-03T12:45:30.893Z,1024.93
2023-03-03T12:46:30.952Z,1024.91
2023-03-03T12:47:30.893Z,1024.86
2023-03-03T12:48:30.919Z,1024.86
2023-03-03T12:49:42.538Z,1024.87
2023-03-03T12:50:31.858Z,1024.86
2023-03-03T12:51:30.860Z,1024.90
2023-03-03T12:52:30.849Z,1024.90
2023-03-03T12:53:30.875Z,1024.89
2023-03-03T12:54:36.964Z,1024.89
2023-03-03T12:55:31.790Z,1024.88
2023-03-03T12:56:30.784Z,1024.91
2023-03-03T12:57:30.833Z,1024.87
2023-03-03T12:58:30.779Z,1024.86
2023-03-03T12:59:30.736Z,1024.83
2023-03-03T13:00:30.799Z,1024.88
2023-03-03T13:01:30.807Z,1024.87
2023-03-03T13:02:30.705Z,1024.86
2023-03-03T13:03:32.234Z,1024.95
2023-03-03T13:04:30.732Z,1024.95
2023-03-03T13:05:30.670Z,1024.90
2023-03-03T13:06:30.846Z,1024.92
2023-03-03T13:07:30.641Z,1024.92
2023-03-03T13:08:30.659Z,1024.92
2023-03-03T13:09:30.735Z,1024.93
2023-03-03T13:10:39.348Z,1024.91
2023-03-03T13:11:30.589Z,1024.94
2023-03-03T13:12:30.584Z,1024.95
2023-03-03T13:13:30.534Z,1024.90
2023-03-03T13:14:30.687Z,1024.91
2023-03-03T13:15:33.250Z,1024.95
2023-03-03T13:16:40.643Z,1024.90
2023-03-03T13:17:31.528Z,1024.92
2023-03-03T13:18:30.535Z,1024.87
2023-03-03T13:19:30.476Z,1024.84
2023-03-03T13:20:30.517Z,1024.82
2023-03-03T13:21:30.483Z,1024.82
2023-03-03T13:22:30.458Z,1024.83
2023-03-03T13:23:30.481Z,1024.75
2023-03-03T13:24:30.421Z,1024.80
2023-03-03T13:25:30.471Z,1024.77
2023-03-03T13:26:31.889Z,1024.76
2023-03-03T13:27:30.407Z,1024.77
2023-03-03T13:28:30.699Z,1024.77
2023-03-03T13:29:30.351Z,1024.79
2023-03-03T13:30:30.486Z,1024.70
2023-03-03T13:31:30.553Z,1024.67
2023-03-03T13:32:30.391Z,1024.70
2023-03-03T13:33:30.324Z,1024.70
2023-03-03T13:34:30.312Z,1024.71
2023-03-03T13:35:30.306Z,1024.67
2023-03-03T13:36:30.274Z,1024.64
2023-03-03T13:37:30.312Z,1024.67
2023-03-03T13:38:30.263Z,1024.67
2023-03-03T13:39:30.258Z,1024.67
2023-03-03T13:40:30.220Z,1024.66
2023-03-03T13:41:30.224Z,1024.65
2023-03-03T13:42:30.209Z,1024.66
2023-03-03T13:43:30.184Z,1024.67
2023-03-03T13:44:30.194Z,1024.66
2023-03-03T13:45:30.221Z,1024.66
2023-03-03T13:46:30.149Z,1024.60
2023-03-03T13:47:30.131Z,1024.61
2023-03-03T13:48:30.117Z,1024.64
2023-03-03T13:49:30.151Z,1024.56
2023-03-03T13:50:30.130Z,1024.55
2023-03-03T13:51:30.117Z,1024.54
2023-03-03T13:52:30.095Z,1024.46
2023-03-03T13:53:30.094Z,1024.50
2023-03-03T13:54:30.094Z,1024.49
2023-03-03T13:55:30.029Z,1024.51
2023-03-03T13:56:30.031Z,1024.44
2023-03-03T13:57:30.076Z,1024.44
2023-03-03T13:58:30.002Z,1024.43
2023-03-03T13:59:30.010Z,1024.39
2023-03-03T14:00:29.971Z,1024.41
2023-03-03T14:01:30.064Z,1024.35
2023-03-03T14:02:29.983Z,1024.33
2023-03-03T14:03:29.954Z,1024.30
2023-03-03T14:04:30.065Z,1024.31
2023-03-03T14:05:29.976Z,1024.28
2023-03-03T14:06:29.981Z,1024.33
2023-03-03T14:07:29.946Z,1024.32
2023-03-03T14:08:29.892Z,1024.29
2023-03-03T14:09:29.850Z,1024.29
2023-03-03T14:10:29.845Z,1024.29
2023-03-03T14:11:29.838Z,1024.30
2023-03-03T14:12:29.827Z,1024.28
2023-03-03T14:13:29.790Z,1024.25
2023-03-03T14:14:29.970Z,1024.26
2023-03-03T14:15:29.763Z,1024.26
2023-03-03T14:16:29.855Z,1024.26
2023-03-03T14:17:29.749Z,1024.28
2023-03-03T14:18:29.738Z,1024.28
2023-03-03T14:19:29.733Z,1024.25
2023-03-03T14:20:29.692Z,1024.21
2023-03-03T14:21:29.672Z,1024.21
2023-03-03T14:22:29.659Z,1024.18
2023-03-03T14:23:29.651Z,1024.15
2023-03-03T14:24:29.685Z,1024.15
2023-03-03T14:25:29.632Z,1024.10
2023-03-03T14:26:29.616Z,1024.06
2023-03-03T14:27:29.661Z,1024.09
2023-03-03T14:28:29.620Z,1023.99
2023-03-03T14:29:29.552Z,1024.00
2023-03-03T14:30:29.614Z,1024.00
2023-03-03T14:31:29.581Z,1024.04
2023-03-03T14:32:44.513Z,1024.00
2023-03-03T14:33:30.506Z,1024.08
2023-03-03T14:34:29.527Z,1024.04
2023-03-03T14:35:29.561Z,1024.06
2023-03-03T14:36:30.479Z,1024.00
2023-03-03T14:37:29.448Z,1024.02
2023-03-03T14:38:29.502Z,1023.99
2023-03-03T14:39:29.433Z,1024.00
2023-03-03T14:40:29.405Z,1023.98
2023-03-03T14:41:29.368Z,1024.02
2023-03-03T14:42:29.417Z,1023.95
2023-03-03T14:43:29.372Z,1023.99
2023-03-03T14:44:29.370Z,1023.94
2023-03-03T14:45:30.626Z,1024.00
2023-03-03T14:46:29.452Z,1023.92
2023-03-03T14:47:36.834Z,1023.94
2023-03-03T14:48:36.822Z,1023.92
2023-03-03T14:49:38.029Z,1023.91
2023-03-03T14:50:36.773Z,1023.90
2023-03-03T14:51:36.762Z,1023.88
2023-03-03T14:52:36.805Z,1023.86
2023-03-03T14:53:36.811Z,1023.86
2023-03-03T14:54:36.767Z,1023.84
2023-03-03T14:55:37.982Z,1023.84
2023-03-03T14:56:29.165Z,1023.85
2023-03-03T14:57:29.175Z,1023.82
2023-03-03T14:58:29.171Z,1023.83
2023-03-03T14:59:29.141Z,1023.80
2023-03-03T15:00:29.145Z,1023.75
2023-03-03T15:01:29.121Z,1023.74
2023-03-03T15:02:29.136Z,1023.73
2023-03-03T15:03:29.082Z,1023.73
2023-03-03T15:04:29.088Z,1023.75
2023-03-03T15:05:29.064Z,1023.67
2023-03-03T15:06:29.152Z,1023.74
2023-03-03T15:07:29.033Z,1023.73
2023-03-03T15:08:29.050Z,1023.69
2023-03-03T15:09:29.014Z,1023.68
2023-03-03T15:10:28.971Z,1023.69
2023-03-03T15:11:28.980Z,1023.66
2023-03-03T15:12:28.941Z,1023.64
2023-03-03T15:13:28.959Z,1023.65
2023-03-03T15:14:28.933Z,1023.68
2023-03-03T15:15:28.964Z,1023.63
2023-03-03T15:16:28.972Z,1023.67
2023-03-03T15:17:28.881Z,1023.60
2023-03-03T15:18:28.872Z,1023.66
2023-03-03T15:19:28.868Z,1023.61
2023-03-03T15:20:28.881Z,1023.61
2023-03-03T15:21:28.828Z,1023.57
2023-03-03T15:22:28.827Z,1023.55
2023-03-03T15:23:28.832Z,1023.58
2023-03-03T15:24:28.806Z,1023.62
2023-03-03T15:25:42.353Z,1023.58
2023-03-03T15:26:29.742Z,1023.57
2023-03-03T15:27:28.750Z,1023.57
2023-03-03T15:28:28.891Z,1023.59
2023-03-03T15:29:28.712Z,1023.54
2023-03-03T15:30:28.735Z,1023.53
2023-03-03T15:31:28.779Z,1023.54
2023-03-03T15:32:30.816Z,1023.59
2023-03-03T15:33:28.706Z,1023.52
2023-03-03T15:34:28.728Z,1023.53
2023-03-03T15:35:28.668Z,1023.54
2023-03-03T15:36:28.594Z,1023.53
2023-03-03T15:37:28.604Z,1023.48
2023-03-03T15:38:28.570Z,1023.47
2023-03-03T15:39:37.262Z,1023.54
2023-03-03T15:40:28.544Z,1023.52
2023-03-03T15:41:28.511Z,1023.50
2023-03-03T15:42:36.035Z,1023.52
2023-03-03T15:43:28.487Z,1023.51
2023-03-03T15:44:28.469Z,1023.45
2023-03-03T15:45:28.547Z,1023.50
2023-03-03T15:46:28.493Z,1023.49
2023-03-03T15:47:28.450Z,1023.44
2023-03-03T15:48:28.429Z,1023.45
2023-03-03T15:49:28.425Z,1023.46
2023-03-03T15:50:28.393Z,1023.42
2023-03-03T15:51:28.412Z,1023.40
2023-03-03T15:52:28.393Z,1023.45
2023-03-03T15:53:28.415Z,1023.45
2023-03-03T15:54:28.354Z,1023.44
2023-03-03T15:55:28.341Z,1023.41
2023-03-03T15:56:28.336Z,1023.44
2023-03-03T15:57:28.356Z,1023.42
2023-03-03T15:58:28.332Z,1023.40
2023-03-03T15:59:28.394Z,1023.45
2023-03-03T16:00:28.240Z,1023.43
2023-03-03T16:01:28.295Z,1023.39
2023-03-03T16:02:28.298Z,1023.38
2023-03-03T16:03:28.253Z,1023.43
2023-03-03T16:04:28.212Z,1023.44
2023-03-03T16:05:28.296Z,1023.41
2023-03-03T16:06:28.181Z,1023.43
2023-03-03T16:07:28.187Z,1023.48
2023-03-03T16:08:28.202Z,1023.49
2023-03-03T16:09:28.132Z,1023.46
2023-03-03T16:10:28.102Z,1023.49
2023-03-03T16:11:28.106Z,1023.49
2023-03-03T16:12:28.090Z,1023.49
2023-03-03T16:13:28.165Z,1023.54
2023-03-03T16:14:28.113Z,1023.51
2023-03-03T16:15:28.052Z,1023.48
2023-03-03T16:16:28.050Z,1023.48
2023-03-03T16:17:28.042Z,1023.48
2023-03-03T16:18:28.024Z,1023.49
2023-03-03T16:19:28.010Z,1023.47
2023-03-03T16:20:28.063Z,1023.51
2023-03-03T16:21:27.989Z,1023.51
2023-03-03T16:22:27.955Z,1023.50
2023-03-03T16:23:27.947Z,1023.51
2023-03-03T16:24:27.943Z,1023.51
2023-03-03T16:25:27.919Z,1023.52
2023-03-03T16:26:27.921Z,1023.50
2023-03-03T16:27:27.905Z,1023.49
2023-03-03T16:28:27.897Z,1023.50
2023-03-03T16:29:28.382Z,1023.50
2023-03-03T16:30:27.897Z,1023.51
2023-03-03T16:31:27.912Z,1023.46
2023-03-03T16:32:27.888Z,1023.55
2023-03-03T16:33:27.823Z,1023.54
2023-03-03T16:34:27.800Z,1023.55
2023-03-03T16:35:27.886Z,1023.52
2023-03-03T16:36:27.802Z,1023.56
2023-03-03T16:37:27.792Z,1023.54
2023-03-03T16:38:27.803Z,1023.58
2023-03-03T16:39:27.771Z,1023.58
2023-03-03T16:40:27.800Z,1023.58
2023-03-03T16:41:27.754Z,1023.59
2023-03-03T16:42:27.723Z,1023.57
2023-03-03T16:43:27.701Z,1023.62
2023-03-03T16:44:27.685Z,1023.61
2023-03-03T16:45:27.804Z,1023.66
2023-03-03T16:46:27.772Z,1023.62
2023-03-03T16:47:27.659Z,1023.62
2023-03-03T16:48:27.677Z,1023.67
2023-03-03T16:49:27.637Z,1023.71
2023-03-03T16:50:27.613Z,1023.69
2023-03-03T16:51:27.619Z,1023.70
2023-03-03T16:52:27.601Z,1023.71
2023-03-03T16:53:27.602Z,1023.72
2023-03-03T16:54:27.653Z,1023.68
2023-03-03T16:55:27.578Z,1023.74
2023-03-03T16:56:27.542Z,1023.72
2023-03-03T16:57:27.531Z,1023.71
2023-03-03T16:58:27.573Z,1023.75
2023-03-03T16:59:27.513Z,1023.70
2023-03-03T17:00:27.483Z,1023.75
2023-03-03T17:01:27.482Z,1023.71
2023-03-03T17:02:27.462Z,1023.74
2023-03-03T17:03:27.469Z,1023.72
2023-03-03T17:04:27.557Z,1023.76
2023-03-03T17:05:27.485Z,1023.74
2023-03-03T17:06:27.427Z,1023.76
2023-03-03T17:07:27.415Z,1023.76
2023-03-03T17:08:27.426Z,1023.74
2023-03-03T17:09:32.976Z,1023.80
2023-03-03T17:10:28.401Z,1023.81
2023-03-03T17:11:27.333Z,1023.81
2023-03-03T17:12:27.368Z,1023.79
2023-03-03T17:13:27.323Z,1023.82
2023-03-03T17:14:27.342Z,1023.83
2023-03-03T17:15:27.367Z,1023.88
2023-03-03T17:16:27.309Z,1023.90
2023-03-03T17:17:27.285Z,1023.92
2023-03-03T17:18:27.256Z,1023.91
2023-03-03T17:19:27.277Z,1023.96
2023-03-03T17:20:27.262Z,1023.99
2023-03-03T17:21:27.262Z,1023.98
2023-03-03T17:22:27.241Z,1023.97
2023-03-03T17:23:27.190Z,1023.95
2023-03-03T17:24:27.180Z,1024.00
2023-03-03T17:25:27.157Z,1024.00
2023-03-03T17:26:27.204Z,1024.04
2023-03-03T17:27:27.133Z,1024.03
2023-03-03T17:28:27.141Z,1024.01
2023-03-03T17:29:27.217Z,1024.02
2023-03-03T17:30:27.086Z,1024.04
2023-03-03T17:31:27.116Z,1024.03
2023-03-03T17:32:27.094Z,1024.04
2023-03-03T17:33:27.072Z,1024.06
2023-03-03T17:34:27.721Z,1024.10
2023-03-03T17:35:27.062Z,1024.13
2023-03-03T17:36:27.035Z,1024.12
2023-03-03T17:37:27.115Z,1024.13
2023-03-03T17:38:27.092Z,1024.15
2023-03-03T17:39:26.970Z,1024.11
2023-03-03T17:40:27.013Z,1024.14
2023-03-03T17:41:26.964Z,1024.13
2023-03-03T17:42:26.942Z,1024.19
2023-03-03T17:43:26.933Z,1024.18
2023-03-03T17:44:26.921Z,1024.20
2023-03-03T17:45:26.900Z,1024.17
2023-03-03T17:46:27.005Z,1024.21
2023-03-03T17:47:26.885Z,1024.24
2023-03-03T17:48:26.892Z,1024.21
2023-03-03T17:49:26.856Z,1024.20
2023-03-03T17:50:27.003Z,1024.23
2023-03-03T17:51:26.836Z,1024.20
2023-03-03T17:52:26.805Z,1024.22
2023-03-03T17:53:26.793Z,1024.21
2023-03-03T17:54:26.799Z,1024.25
2023-03-03T17:55:26.782Z,1024.17
2023-03-03T17:56:26.784Z,1024.26
2023-03-03T17:57:26.737Z,1024.27
2023-03-03T17:58:26.733Z,1024.24
2023-03-03T17:59:26.733Z,1024.28
2023-03-03T18:00:26.808Z,1024.27
2023-03-03T18:01:26.818Z,1024.29
2023-03-03T18:02:26.721Z,1024.26
2023-03-03T18:03:26.761Z,1024.24
2023-03-03T18:04:26.728Z,1024.27
2023-03-03T18:05:26.649Z,1024.28
2023-03-03T18:06:26.656Z,1024.29
2023-03-03T18:07:26.617Z,1024.27
2023-03-03T18:08:26.611Z,1024.25
2023-03-03T18:09:26.625Z,1024.28
2023-03-03T18:10:26.573Z,1024.29
2023-03-03T18:11:26.578Z,1024.29
2023-03-03T18:12:26.522Z,1024.30
2023-03-03T18:13:26.528Z,1024.30
2023-03-03T18:14:26.527Z,1024.35
2023-03-03T18:15:26.493Z,1024.33
2023-03-03T18:16:26.479Z,1024.33
2023-03-03T18:17:26.464Z,1024.40
2023-03-03T18:18:26.463Z,1024.33
2023-03-03T18:19:26.459Z,1024.31
2023-03-03T18:20:26.453Z,1024.29
2023-03-03T18:21:26.436Z,1024.33
2023-03-03T18:22:26.409Z,1024.31
2023-03-03T18:23:26.429Z,1024.31
2023-03-03T18:24:26.385Z,1024.29
2023-03-03T18:25:26.393Z,1024.33
2023-03-03T18:26:26.379Z,1024.30
2023-03-03T18:27:26.336Z,1024.37
2023-03-03T18:28:26.328Z,1024.35
2023-03-03T18:29:26.346Z,1024.36
2023-03-03T18:30:26.335Z,1024.37
2023-03-03T18:31:26.409Z,1024.36